sensor_id;sensor_type;location;lat;lon;timestamp;temperature;humidity
18365;DHT22;9309;52.126;11.616;2023-03-14T00:01:20;10.70;85.90
18365;DHT22;9309;52.126;11.616;2023-03-14T00:03:47;10.70;85.80
18365;DHT22;9309;52.126;11.616;2023-03-14T00:06:14;10.70;85.50
18365;DHT22;9309;52.126;11.616;2023-03-14T00:08:41;10.70;85.30
18365;DHT22;9309;52.126;11.616;2023-03-14T00:11:09;10.70;85.20
18365;DHT22;9309;52.126;11.616;2023-03-14T00:13:36;10.70;85.10
18365;DHT22;9309;52.126;11.616;2023-03-14T00:16:03;10.70;85.10
18365;DHT22;9309;52.126;11.616;2023-03-14T00:18:30;10.70;85.10
18365;DHT22;9309;52.126;11.616;2023-03-14T00:20:57;10.60;85.20
18365;DHT22;9309;52.126;11.616;2023-03-14T00:23:23;10.60;85.00
18365;DHT22;9309;52.126;11.616;2023-03-14T00:25:50;10.70;85.00
18365;DHT22;9309;52.126;11.616;2023-03-14T00:28:18;10.70;84.80
18365;DHT22;9309;52.126;11.616;2023-03-14T00:30:46;10.60;84.90
18365;DHT22;9309;52.126;11.616;2023-03-14T00:33:13;10.60;85.20
18365;DHT22;9309;52.126;11.616;2023-03-14T00:35:40;10.50;84.90
18365;DHT22;9309;52.126;11.616;2023-03-14T00:38:07;10.40;85.50
18365;DHT22;9309;52.126;11.616;2023-03-14T00:40:33;10.40;85.70
18365;DHT22;9309;52.126;11.616;2023-03-14T00:43:00;10.40;85.90
18365;DHT22;9309;52.126;11.616;2023-03-14T00:45:27;10.30;85.80
18365;DHT22;9309;52.126;11.616;2023-03-14T00:47:54;10.30;86.20
18365;DHT22;9309;52.126;11.616;2023-03-14T00:50:20;10.40;85.70
18365;DHT22;9309;52.126;11.616;2023-03-14T00:52:47;10.40;85.50
18365;DHT22;9309;52.126;11.616;2023-03-14T00:55:14;10.40;85.40
18365;DHT22;9309;52.126;11.616;2023-03-14T00:57:41;10.40;85.10
18365;DHT22;9309;52.126;11.616;2023-03-14T01:00:08;10.50;84.90
18365;DHT22;9309;52.126;11.616;2023-03-14T01:02:38;10.40;84.80
18365;DHT22;9309;52.126;11.616;2023-03-14T01:05:05;10.40;84.80
18365;DHT22;9309;52.126;11.616;2023-03-14T01:07:32;10.40;84.80
18365;DHT22;9309;52.126;11.616;2023-03-14T01:09:59;10.40;85.10
18365;DHT22;9309;52.126;11.616;2023-03-14T01:12:27;10.40;85.10
18365;DHT22;9309;52.126;11.616;2023-03-14T01:14:53;10.40;84.60
18365;DHT22;9309;52.126;11.616;2023-03-14T01:17:20;10.50;83.90
18365;DHT22;9309;52.126;11.616;2023-03-14T01:19:50;10.60;83.30
18365;DHT22;9309;52.126;11.616;2023-03-14T01:22:16;10.70;82.70
18365;DHT22;9309;52.126;11.616;2023-03-14T01:24:43;10.80;82.00
18365;DHT22;9309;52.126;11.616;2023-03-14T01:27:09;10.80;81.70
18365;DHT22;9309;52.126;11.616;2023-03-14T01:29:36;10.70;81.60
18365;DHT22;9309;52.126;11.616;2023-03-14T01:32:03;10.70;81.50
18365;DHT22;9309;52.126;11.616;2023-03-14T01:34:30;10.70;81.70
18365;DHT22;9309;52.126;11.616;2023-03-14T01:36:58;10.60;81.80
18365;DHT22;9309;52.126;11.616;2023-03-14T01:39:25;10.50;82.00
18365;DHT22;9309;52.126;11.616;2023-03-14T01:41:51;10.50;82.10
18365;DHT22;9309;52.126;11.616;2023-03-14T01:44:18;10.50;82.00
18365;DHT22;9309;52.126;11.616;2023-03-14T01:46:45;10.50;81.80
18365;DHT22;9309;52.126;11.616;2023-03-14T01:49:15;10.50;81.60
18365;DHT22;9309;52.126;11.616;2023-03-14T01:51:49;10.60;81.30
18365;DHT22;9309;52.126;11.616;2023-03-14T01:54:20;10.60;81.10
18365;DHT22;9309;52.126;11.616;2023-03-14T01:56:49;10.60;80.80
18365;DHT22;9309;52.126;11.616;2023-03-14T01:59:16;10.60;80.70
18365;DHT22;9309;52.126;11.616;2023-03-14T02:01:43;10.60;80.20
18365;DHT22;9309;52.126;11.616;2023-03-14T02:04:11;10.60;79.80
18365;DHT22;9309;52.126;11.616;2023-03-14T02:06:42;10.60;79.70
18365;DHT22;9309;52.126;11.616;2023-03-14T02:09:11;10.60;79.60
18365;DHT22;9309;52.126;11.616;2023-03-14T02:11:39;10.50;79.50
18365;DHT22;9309;52.126;11.616;2023-03-14T02:14:16;10.50;79.30
18365;DHT22;9309;52.126;11.616;2023-03-14T02:17:06;10.50;79.00
18365;DHT22;9309;52.126;11.616;2023-03-14T02:20:00;10.60;78.70
18365;DHT22;9309;52.126;11.616;2023-03-14T02:22:42;10.60;78.30
18365;DHT22;9309;52.126;11.616;2023-03-14T02:25:11;10.60;78.00
18365;DHT22;9309;52.126;11.616;2023-03-14T02:27:42;10.60;77.80
18365;DHT22;9309;52.126;11.616;2023-03-14T02:30:11;10.60;77.80
18365;DHT22;9309;52.126;11.616;2023-03-14T02:32:41;10.60;77.80
18365;DHT22;9309;52.126;11.616;2023-03-14T02:35:09;10.60;77.90
18365;DHT22;9309;52.126;11.616;2023-03-14T02:37:38;10.50;78.00
18365;DHT22;9309;52.126;11.616;2023-03-14T02:40:08;10.50;78.10
18365;DHT22;9309;52.126;11.616;2023-03-14T02:42:35;10.40;78.20
18365;DHT22;9309;52.126;11.616;2023-03-14T02:47:46;10.30;78.60
18365;DHT22;9309;52.126;11.616;2023-03-14T02:50:16;10.30;78.80
18365;DHT22;9309;52.126;11.616;2023-03-14T02:52:43;10.20;79.00
18365;DHT22;9309;52.126;11.616;2023-03-14T02:55:10;10.20;79.20
18365;DHT22;9309;52.126;11.616;2023-03-14T02:57:39;10.20;79.30
18365;DHT22;9309;52.126;11.616;2023-03-14T03:00:06;10.00;79.50
18365;DHT22;9309;52.126;11.616;2023-03-14T03:02:35;10.00;79.40
18365;DHT22;9309;52.126;11.616;2023-03-14T03:05:03;10.00;79.40
18365;DHT22;9309;52.126;11.616;2023-03-14T03:07:30;10.00;79.30
18365;DHT22;9309;52.126;11.616;2023-03-14T03:09:57;10.00;79.50
18365;DHT22;9309;52.126;11.616;2023-03-14T03:12:24;9.90;79.60
18365;DHT22;9309;52.126;11.616;2023-03-14T03:14:51;9.90;79.50
18365;DHT22;9309;52.126;11.616;2023-03-14T03:17:17;9.90;79.70
18365;DHT22;9309;52.126;11.616;2023-03-14T03:19:44;9.80;79.80
18365;DHT22;9309;52.126;11.616;2023-03-14T03:22:11;9.80;79.80
18365;DHT22;9309;52.126;11.616;2023-03-14T03:24:40;9.80;79.30
18365;DHT22;9309;52.126;11.616;2023-03-14T03:27:06;10.00;78.20
18365;DHT22;9309;52.126;11.616;2023-03-14T03:29:33;10.10;77.10
18365;DHT22;9309;52.126;11.616;2023-03-14T03:32:00;10.20;76.70
18365;DHT22;9309;52.126;11.616;2023-03-14T03:34:27;10.30;76.20
18365;DHT22;9309;52.126;11.616;2023-03-14T03:36:55;10.40;75.50
18365;DHT22;9309;52.126;11.616;2023-03-14T03:39:23;10.30;75.60
18365;DHT22;9309;52.126;11.616;2023-03-14T03:41:50;10.50;74.80
18365;DHT22;9309;52.126;11.616;2023-03-14T03:44:17;10.50;74.60
18365;DHT22;9309;52.126;11.616;2023-03-14T03:46:43;10.40;74.70
18365;DHT22;9309;52.126;11.616;2023-03-14T03:49:10;10.40;74.90
18365;DHT22;9309;52.126;11.616;2023-03-14T03:51:37;10.30;74.90
18365;DHT22;9309;52.126;11.616;2023-03-14T03:54:03;10.40;74.50
18365;DHT22;9309;52.126;11.616;2023-03-14T03:56:33;10.50;74.10
18365;DHT22;9309;52.126;11.616;2023-03-14T03:59:00;10.50;73.80
18365;DHT22;9309;52.126;11.616;2023-03-14T04:01:26;10.60;73.30
18365;DHT22;9309;52.126;11.616;2023-03-14T04:03:56;10.60;73.40
18365;DHT22;9309;52.126;11.616;2023-03-14T04:06:22;10.60;73.70
18365;DHT22;9309;52.126;11.616;2023-03-14T04:08:53;10.50;73.80
18365;DHT22;9309;52.126;11.616;2023-03-14T04:11:41;10.50;73.80
18365;DHT22;9309;52.126;11.616;2023-03-14T04:14:22;10.40;74.10
18365;DHT22;9309;52.126;11.616;2023-03-14T04:16:58;10.40;74.20
18365;DHT22;9309;52.126;11.616;2023-03-14T04:19:25;10.40;74.40
18365;DHT22;9309;52.126;11.616;2023-03-14T04:21:53;10.30;74.50
18365;DHT22;9309;52.126;11.616;2023-03-14T04:24:21;10.30;74.80
18365;DHT22;9309;52.126;11.616;2023-03-14T04:26:49;10.30;74.90
18365;DHT22;9309;52.126;11.616;2023-03-14T04:29:16;10.40;74.60
18365;DHT22;9309;52.126;11.616;2023-03-14T04:31:44;10.40;74.40
18365;DHT22;9309;52.126;11.616;2023-03-14T04:34:11;10.50;74.10
18365;DHT22;9309;52.126;11.616;2023-03-14T04:36:44;10.50;74.10
18365;DHT22;9309;52.126;11.616;2023-03-14T04:39:16;10.50;74.10
18365;DHT22;9309;52.126;11.616;2023-03-14T04:41:52;10.50;74.20
18365;DHT22;9309;52.126;11.616;2023-03-14T04:44:18;10.50;74.20
18365;DHT22;9309;52.126;11.616;2023-03-14T04:46:46;10.50;74.20
18365;DHT22;9309;52.126;11.616;2023-03-14T04:49:13;10.50;74.30
18365;DHT22;9309;52.126;11.616;2023-03-14T04:51:40;10.40;74.60
18365;DHT22;9309;52.126;11.616;2023-03-14T04:54:07;10.30;74.60
18365;DHT22;9309;52.126;11.616;2023-03-14T04:56:33;10.40;74.70
18365;DHT22;9309;52.126;11.616;2023-03-14T04:59:03;10.40;74.70
18365;DHT22;9309;52.126;11.616;2023-03-14T05:01:31;10.40;74.60
18365;DHT22;9309;52.126;11.616;2023-03-14T05:04:20;10.40;74.50
18365;DHT22;9309;52.126;11.616;2023-03-14T05:07:09;10.40;74.30
18365;DHT22;9309;52.126;11.616;2023-03-14T05:09:47;10.50;74.30
18365;DHT22;9309;52.126;11.616;2023-03-14T05:12:41;10.50;74.50
18365;DHT22;9309;52.126;11.616;2023-03-14T05:15:29;10.40;74.70
18365;DHT22;9309;52.126;11.616;2023-03-14T05:18:18;10.40;74.50
18365;DHT22;9309;52.126;11.616;2023-03-14T05:20:55;10.40;74.40
18365;DHT22;9309;52.126;11.616;2023-03-14T05:23:45;10.40;74.50
18365;DHT22;9309;52.126;11.616;2023-03-14T05:26:28;10.40;74.70
18365;DHT22;9309;52.126;11.616;2023-03-14T05:29:15;10.30;74.90
18365;DHT22;9309;52.126;11.616;2023-03-14T05:32:08;10.30;74.90
18365;DHT22;9309;52.126;11.616;2023-03-14T05:34:49;10.30;75.00
18365;DHT22;9309;52.126;11.616;2023-03-14T05:37:26;10.30;75.00
18365;DHT22;9309;52.126;11.616;2023-03-14T05:40:11;10.40;74.40
18365;DHT22;9309;52.126;11.616;2023-03-14T05:43:01;10.40;74.40
18365;DHT22;9309;52.126;11.616;2023-03-14T05:45:51;10.30;75.00
18365;DHT22;9309;52.126;11.616;2023-03-14T05:48:38;10.20;75.10
18365;DHT22;9309;52.126;11.616;2023-03-14T05:51:12;10.20;75.10
18365;DHT22;9309;52.126;11.616;2023-03-14T05:53:55;10.20;75.40
18365;DHT22;9309;52.126;11.616;2023-03-14T05:56:40;10.20;75.20
18365;DHT22;9309;52.126;11.616;2023-03-14T05:59:09;10.20;75.20
18365;DHT22;9309;52.126;11.616;2023-03-14T06:01:54;10.30;75.10
18365;DHT22;9309;52.126;11.616;2023-03-14T06:04:26;10.30;75.00
18365;DHT22;9309;52.126;11.616;2023-03-14T06:06:57;10.30;74.90
18365;DHT22;9309;52.126;11.616;2023-03-14T06:09:24;10.40;74.70
18365;DHT22;9309;52.126;11.616;2023-03-14T06:11:53;10.40;74.70
18365;DHT22;9309;52.126;11.616;2023-03-14T06:14:20;10.30;75.00
18365;DHT22;9309;52.126;11.616;2023-03-14T06:16:48;10.30;75.00
18365;DHT22;9309;52.126;11.616;2023-03-14T06:19:17;10.30;75.10
18365;DHT22;9309;52.126;11.616;2023-03-14T06:21:45;10.30;74.80
18365;DHT22;9309;52.126;11.616;2023-03-14T06:27:59;10.50;73.80
18365;DHT22;9309;52.126;11.616;2023-03-14T06:30:26;10.40;73.90
18365;DHT22;9309;52.126;11.616;2023-03-14T06:33:01;10.50;74.00
18365;DHT22;9309;52.126;11.616;2023-03-14T06:35:58;10.50;73.60
18365;DHT22;9309;52.126;11.616;2023-03-14T06:38:25;10.50;73.50
18365;DHT22;9309;52.126;11.616;2023-03-14T06:40:54;10.60;73.40
18365;DHT22;9309;52.126;11.616;2023-03-14T06:43:33;10.60;73.50
18365;DHT22;9309;52.126;11.616;2023-03-14T06:45:59;10.60;73.00
18365;DHT22;9309;52.126;11.616;2023-03-14T06:48:26;10.70;73.00
18365;DHT22;9309;52.126;11.616;2023-03-14T06:50:53;10.70;72.80
18365;DHT22;9309;52.126;11.616;2023-03-14T06:53:22;10.80;72.40
18365;DHT22;9309;52.126;11.616;2023-03-14T06:55:49;10.80;72.20
18365;DHT22;9309;52.126;11.616;2023-03-14T06:58:17;10.90;71.80
18365;DHT22;9309;52.126;11.616;2023-03-14T07:00:44;11.00;71.00
18365;DHT22;9309;52.126;11.616;2023-03-14T07:03:15;11.20;70.60
18365;DHT22;9309;52.126;11.616;2023-03-14T07:05:46;11.30;70.20
18365;DHT22;9309;52.126;11.616;2023-03-14T07:08:13;11.30;70.00
18365;DHT22;9309;52.126;11.616;2023-03-14T07:10:41;11.40;69.90
18365;DHT22;9309;52.126;11.616;2023-03-14T07:13:08;11.30;70.00
18365;DHT22;9309;52.126;11.616;2023-03-14T07:15:44;11.40;69.80
18365;DHT22;9309;52.126;11.616;2023-03-14T07:18:11;11.30;69.40
18365;DHT22;9309;52.126;11.616;2023-03-14T07:20:37;11.20;69.20
18365;DHT22;9309;52.126;11.616;2023-03-14T07:23:06;11.30;69.20
18365;DHT22;9309;52.126;11.616;2023-03-14T07:25:39;11.40;68.70
18365;DHT22;9309;52.126;11.616;2023-03-14T07:28:08;11.50;68.40
18365;DHT22;9309;52.126;11.616;2023-03-14T07:30:37;11.40;68.30
18365;DHT22;9309;52.126;11.616;2023-03-14T07:33:10;11.40;68.30
18365;DHT22;9309;52.126;11.616;2023-03-14T07:35:37;11.40;68.20
18365;DHT22;9309;52.126;11.616;2023-03-14T07:38:04;11.40;68.40
18365;DHT22;9309;52.126;11.616;2023-03-14T07:40:36;11.40;68.40
18365;DHT22;9309;52.126;11.616;2023-03-14T07:43:04;11.50;68.10
18365;DHT22;9309;52.126;11.616;2023-03-14T07:45:46;11.40;68.70
18365;DHT22;9309;52.126;11.616;2023-03-14T07:48:12;11.30;69.40
18365;DHT22;9309;52.126;11.616;2023-03-14T07:50:39;11.40;69.40
18365;DHT22;9309;52.126;11.616;2023-03-14T07:53:05;11.40;69.50
18365;DHT22;9309;52.126;11.616;2023-03-14T07:55:32;11.70;68.60
18365;DHT22;9309;52.126;11.616;2023-03-14T07:57:58;11.70;68.30
18365;DHT22;9309;52.126;11.616;2023-03-14T08:00:25;11.90;67.00
18365;DHT22;9309;52.126;11.616;2023-03-14T08:02:53;12.10;66.00
18365;DHT22;9309;52.126;11.616;2023-03-14T08:05:19;12.20;65.60
18365;DHT22;9309;52.126;11.616;2023-03-14T08:07:46;12.30;63.90
18365;DHT22;9309;52.126;11.616;2023-03-14T08:10:13;12.20;64.20
18365;DHT22;9309;52.126;11.616;2023-03-14T08:12:47;12.30;64.00
18365;DHT22;9309;52.126;11.616;2023-03-14T08:15:13;12.30;64.10
18365;DHT22;9309;52.126;11.616;2023-03-14T08:17:40;12.50;63.50
18365;DHT22;9309;52.126;11.616;2023-03-14T08:20:08;12.50;63.90
18365;DHT22;9309;52.126;11.616;2023-03-14T08:22:36;12.40;63.90
18365;DHT22;9309;52.126;11.616;2023-03-14T08:25:04;12.60;63.10
18365;DHT22;9309;52.126;11.616;2023-03-14T08:27:30;12.80;63.10
18365;DHT22;9309;52.126;11.616;2023-03-14T08:29:57;13.30;61.30
18365;DHT22;9309;52.126;11.616;2023-03-14T08:32:23;13.90;59.20
18365;DHT22;9309;52.126;11.616;2023-03-14T08:34:50;14.40;57.40
18365;DHT22;9309;52.126;11.616;2023-03-14T08:37:18;14.20;57.70
18365;DHT22;9309;52.126;11.616;2023-03-14T08:39:45;13.90;57.70
18365;DHT22;9309;52.126;11.616;2023-03-14T08:42:11;13.60;58.00
18365;DHT22;9309;52.126;11.616;2023-03-14T08:44:38;13.50;58.40
18365;DHT22;9309;52.126;11.616;2023-03-14T08:47:04;13.40;58.60
18365;DHT22;9309;52.126;11.616;2023-03-14T08:49:31;13.50;58.70
18365;DHT22;9309;52.126;11.616;2023-03-14T08:51:57;13.40;59.00
18365;DHT22;9309;52.126;11.616;2023-03-14T08:54:25;13.60;58.70
18365;DHT22;9309;52.126;11.616;2023-03-14T08:56:52;13.70;57.80
18365;DHT22;9309;52.126;11.616;2023-03-14T08:59:18;13.60;57.10
18365;DHT22;9309;52.126;11.616;2023-03-14T09:01:45;13.60;57.90
18365;DHT22;9309;52.126;11.616;2023-03-14T09:04:11;13.80;57.30
18365;DHT22;9309;52.126;11.616;2023-03-14T09:06:38;14.00;57.00
18365;DHT22;9309;52.126;11.616;2023-03-14T09:09:05;14.00;56.70
18365;DHT22;9309;52.126;11.616;2023-03-14T09:11:33;14.10;56.60
18365;DHT22;9309;52.126;11.616;2023-03-14T09:13:59;14.20;56.70
18365;DHT22;9309;52.126;11.616;2023-03-14T09:16:26;13.90;56.70
18365;DHT22;9309;52.126;11.616;2023-03-14T09:18:53;13.90;56.80
18365;DHT22;9309;52.126;11.616;2023-03-14T09:21:19;13.90;57.00
18365;DHT22;9309;52.126;11.616;2023-03-14T09:23:46;13.90;56.60
18365;DHT22;9309;52.126;11.616;2023-03-14T09:26:14;13.90;56.80
18365;DHT22;9309;52.126;11.616;2023-03-14T09:28:42;14.00;57.60
18365;DHT22;9309;52.126;11.616;2023-03-14T09:31:08;13.90;56.90
18365;DHT22;9309;52.126;11.616;2023-03-14T09:33:35;14.10;56.30
18365;DHT22;9309;52.126;11.616;2023-03-14T09:36:02;14.20;56.60
18365;DHT22;9309;52.126;11.616;2023-03-14T09:38:29;14.30;55.80
18365;DHT22;9309;52.126;11.616;2023-03-14T09:40:57;14.40;55.40
18365;DHT22;9309;52.126;11.616;2023-03-14T09:43:24;14.40;56.00
18365;DHT22;9309;52.126;11.616;2023-03-14T09:45:54;14.20;56.20
18365;DHT22;9309;52.126;11.616;2023-03-14T09:48:21;14.00;56.30
18365;DHT22;9309;52.126;11.616;2023-03-14T09:50:48;13.80;57.90
18365;DHT22;9309;52.126;11.616;2023-03-14T09:53:16;13.80;57.90
18365;DHT22;9309;52.126;11.616;2023-03-14T09:55:44;13.80;57.90
18365;DHT22;9309;52.126;11.616;2023-03-14T09:58:13;13.70;58.30
18365;DHT22;9309;52.126;11.616;2023-03-14T10:00:40;13.70;58.50
18365;DHT22;9309;52.126;11.616;2023-03-14T10:03:24;13.60;58.70
18365;DHT22;9309;52.126;11.616;2023-03-14T10:05:51;13.70;58.50
18365;DHT22;9309;52.126;11.616;2023-03-14T10:08:17;13.80;57.60
18365;DHT22;9309;52.126;11.616;2023-03-14T10:10:44;13.60;57.80
18365;DHT22;9309;52.126;11.616;2023-03-14T10:13:15;13.60;58.50
18365;DHT22;9309;52.126;11.616;2023-03-14T10:15:47;13.60;58.70
18365;DHT22;9309;52.126;11.616;2023-03-14T10:18:14;13.60;58.10
18365;DHT22;9309;52.126;11.616;2023-03-14T10:20:47;13.60;57.70
18365;DHT22;9309;52.126;11.616;2023-03-14T10:23:24;13.50;58.60
18365;DHT22;9309;52.126;11.616;2023-03-14T10:26:03;13.50;59.30
18365;DHT22;9309;52.126;11.616;2023-03-14T10:28:32;13.50;59.80
18365;DHT22;9309;52.126;11.616;2023-03-14T10:30:59;13.60;59.90
18365;DHT22;9309;52.126;11.616;2023-03-14T10:33:28;14.10;58.10
18365;DHT22;9309;52.126;11.616;2023-03-14T10:35:58;14.10;57.00
18365;DHT22;9309;52.126;11.616;2023-03-14T10:38:27;14.10;57.50
18365;DHT22;9309;52.126;11.616;2023-03-14T10:40:55;14.00;57.00
18365;DHT22;9309;52.126;11.616;2023-03-14T10:43:24;14.00;57.10
18365;DHT22;9309;52.126;11.616;2023-03-14T10:45:54;14.00;56.70
18365;DHT22;9309;52.126;11.616;2023-03-14T10:48:29;14.10;56.80
18365;DHT22;9309;52.126;11.616;2023-03-14T10:51:06;14.10;57.10
18365;DHT22;9309;52.126;11.616;2023-03-14T10:53:34;14.20;56.80
18365;DHT22;9309;52.126;11.616;2023-03-14T10:56:05;14.30;56.70
18365;DHT22;9309;52.126;11.616;2023-03-14T10:58:35;14.20;56.90
18365;DHT22;9309;52.126;11.616;2023-03-14T11:01:14;14.00;57.70
18365;DHT22;9309;52.126;11.616;2023-03-14T11:03:45;14.00;58.30
18365;DHT22;9309;52.126;11.616;2023-03-14T11:06:21;14.00;58.20
18365;DHT22;9309;52.126;11.616;2023-03-14T11:08:53;13.90;57.10
18365;DHT22;9309;52.126;11.616;2023-03-14T11:11:25;13.80;57.50
18365;DHT22;9309;52.126;11.616;2023-03-14T11:14:02;13.80;58.10
18365;DHT22;9309;52.126;11.616;2023-03-14T11:16:40;13.80;58.10
18365;DHT22;9309;52.126;11.616;2023-03-14T11:19:17;13.70;57.90
18365;DHT22;9309;52.126;11.616;2023-03-14T11:21:53;13.60;58.70
18365;DHT22;9309;52.126;11.616;2023-03-14T11:24:53;13.80;57.80
18365;DHT22;9309;52.126;11.616;2023-03-14T11:27:23;14.00;58.20
18365;DHT22;9309;52.126;11.616;2023-03-14T11:29:54;14.20;57.10
18365;DHT22;9309;52.126;11.616;2023-03-14T11:32:32;14.50;56.80
18365;DHT22;9309;52.126;11.616;2023-03-14T11:35:03;14.50;56.70
18365;DHT22;9309;52.126;11.616;2023-03-14T11:37:34;14.40;57.00
18365;DHT22;9309;52.126;11.616;2023-03-14T11:40:12;14.20;56.60
18365;DHT22;9309;52.126;11.616;2023-03-14T11:42:43;14.10;57.00
18365;DHT22;9309;52.126;11.616;2023-03-14T11:45:16;13.90;58.00
18365;DHT22;9309;52.126;11.616;2023-03-14T11:47:46;14.00;57.60
18365;DHT22;9309;52.126;11.616;2023-03-14T11:50:20;13.90;57.90
18365;DHT22;9309;52.126;11.616;2023-03-14T11:52:52;14.50;57.00
18365;DHT22;9309;52.126;11.616;2023-03-14T11:55:23;16.40;51.60
18365;DHT22;9309;52.126;11.616;2023-03-14T11:57:55;16.10;52.00
18365;DHT22;9309;52.126;11.616;2023-03-14T12:00:24;15.70;52.80
18365;DHT22;9309;52.126;11.616;2023-03-14T12:02:55;15.40;54.10
18365;DHT22;9309;52.126;11.616;2023-03-14T12:05:39;15.70;53.30
18365;DHT22;9309;52.126;11.616;2023-03-14T12:08:43;15.50;53.40
18365;DHT22;9309;52.126;11.616;2023-03-14T12:11:15;15.10;54.00
18365;DHT22;9309;52.126;11.616;2023-03-14T12:13:47;15.00;54.60
18365;DHT22;9309;52.126;11.616;2023-03-14T12:16:32;15.90;52.10
18365;DHT22;9309;52.126;11.616;2023-03-14T12:19:14;16.20;51.50
18365;DHT22;9309;52.126;11.616;2023-03-14T12:21:52;15.60;53.30
18365;DHT22;9309;52.126;11.616;2023-03-14T12:24:23;15.20;54.30
18365;DHT22;9309;52.126;11.616;2023-03-14T12:26:54;15.30;54.50
18365;DHT22;9309;52.126;11.616;2023-03-14T12:29:21;15.20;54.90
18365;DHT22;9309;52.126;11.616;2023-03-14T12:31:49;15.30;55.30
18365;DHT22;9309;52.126;11.616;2023-03-14T12:34:32;15.50;54.20
18365;DHT22;9309;52.126;11.616;2023-03-14T12:37:10;15.60;53.30
18365;DHT22;9309;52.126;11.616;2023-03-14T12:39:49;15.80;53.10
18365;DHT22;9309;52.126;11.616;2023-03-14T12:42:36;15.80;52.50
18365;DHT22;9309;52.126;11.616;2023-03-14T12:45:23;16.30;52.10
18365;DHT22;9309;52.126;11.616;2023-03-14T12:47:53;16.50;52.50
18365;DHT22;9309;52.126;11.616;2023-03-14T12:50:24;15.90;53.20
18365;DHT22;9309;52.126;11.616;2023-03-14T12:53:07;15.30;54.80
18365;DHT22;9309;52.126;11.616;2023-03-14T12:55:45;14.90;55.70
18365;DHT22;9309;52.126;11.616;2023-03-14T12:58:17;14.60;57.40
18365;DHT22;9309;52.126;11.616;2023-03-14T13:00:54;14.60;57.80
18365;DHT22;9309;52.126;11.616;2023-03-14T13:03:24;14.70;57.60
18365;DHT22;9309;52.126;11.616;2023-03-14T13:05:54;14.90;56.90
18365;DHT22;9309;52.126;11.616;2023-03-14T13:08:38;14.80;57.50
18365;DHT22;9309;52.126;11.616;2023-03-14T13:11:09;14.00;63.60
18365;DHT22;9309;52.126;11.616;2023-03-14T13:13:40;13.20;68.00
18365;DHT22;9309;52.126;11.616;2023-03-14T13:16:12;12.80;67.40
18365;DHT22;9309;52.126;11.616;2023-03-14T13:18:41;12.50;69.30
18365;DHT22;9309;52.126;11.616;2023-03-14T13:21:12;12.10;76.00
18365;DHT22;9309;52.126;11.616;2023-03-14T13:23:40;11.70;78.40
18365;DHT22;9309;52.126;11.616;2023-03-14T13:26:13;11.50;78.20
18365;DHT22;9309;52.126;11.616;2023-03-14T13:28:41;11.60;78.60
18365;DHT22;9309;52.126;11.616;2023-03-14T13:31:20;11.50;79.90
18365;DHT22;9309;52.126;11.616;2023-03-14T13:33:56;11.50;81.40
18365;DHT22;9309;52.126;11.616;2023-03-14T13:36:23;11.40;80.80
18365;DHT22;9309;52.126;11.616;2023-03-14T13:38:55;11.60;80.80
18365;DHT22;9309;52.126;11.616;2023-03-14T13:41:23;11.70;79.40
18365;DHT22;9309;52.126;11.616;2023-03-14T13:43:50;10.40;78.70
18365;DHT22;9309;52.126;11.616;2023-03-14T13:46:20;9.00;82.70
18365;DHT22;9309;52.126;11.616;2023-03-14T13:48:49;8.30;88.50
18365;DHT22;9309;52.126;11.616;2023-03-14T13:51:18;7.90;91.80
18365;DHT22;9309;52.126;11.616;2023-03-14T13:53:47;7.70;91.90
18365;DHT22;9309;52.126;11.616;2023-03-14T13:56:15;7.60;92.90
18365;DHT22;9309;52.126;11.616;2023-03-14T13:58:43;7.60;92.30
18365;DHT22;9309;52.126;11.616;2023-03-14T14:01:14;7.50;93.00
18365;DHT22;9309;52.126;11.616;2023-03-14T14:03:43;7.40;93.50
18365;DHT22;9309;52.126;11.616;2023-03-14T14:06:22;7.40;93.50
18365;DHT22;9309;52.126;11.616;2023-03-14T14:08:50;7.40;93.30
18365;DHT22;9309;52.126;11.616;2023-03-14T14:11:22;7.20;92.80
18365;DHT22;9309;52.126;11.616;2023-03-14T14:13:56;7.10;92.10
18365;DHT22;9309;52.126;11.616;2023-03-14T14:16:24;6.80;90.60
18365;DHT22;9309;52.126;11.616;2023-03-14T14:18:52;6.50;90.50
18365;DHT22;9309;52.126;11.616;2023-03-14T14:21:20;6.50;91.80
18365;DHT22;9309;52.126;11.616;2023-03-14T14:23:48;6.20;90.10
18365;DHT22;9309;52.126;11.616;2023-03-14T14:26:16;6.20;92.40
18365;DHT22;9309;52.126;11.616;2023-03-14T14:28:44;6.00;92.20
18365;DHT22;9309;52.126;11.616;2023-03-14T14:31:21;5.80;91.00
18365;DHT22;9309;52.126;11.616;2023-03-14T14:33:55;5.90;90.80
18365;DHT22;9309;52.126;11.616;2023-03-14T14:36:24;5.70;89.10
18365;DHT22;9309;52.126;11.616;2023-03-14T14:38:53;5.60;91.00
18365;DHT22;9309;52.126;11.616;2023-03-14T14:41:20;5.50;88.60
18365;DHT22;9309;52.126;11.616;2023-03-14T14:43:48;5.30;88.70
18365;DHT22;9309;52.126;11.616;2023-03-14T14:46:18;5.10;88.90
18365;DHT22;9309;52.126;11.616;2023-03-14T14:48:47;5.10;90.10
18365;DHT22;9309;52.126;11.616;2023-03-14T14:51:25;5.10;89.30
18365;DHT22;9309;52.126;11.616;2023-03-14T14:54:09;5.00;88.70
18365;DHT22;9309;52.126;11.616;2023-03-14T14:56:38;5.00;89.20
18365;DHT22;9309;52.126;11.616;2023-03-14T14:59:07;4.90;89.60
18365;DHT22;9309;52.126;11.616;2023-03-14T15:01:44;4.90;89.70
18365;DHT22;9309;52.126;11.616;2023-03-14T15:04:14;4.90;90.30
18365;DHT22;9309;52.126;11.616;2023-03-14T15:06:43;4.80;91.50
18365;DHT22;9309;52.126;11.616;2023-03-14T15:09:11;4.80;91.20
18365;DHT22;9309;52.126;11.616;2023-03-14T15:11:38;4.60;89.60
18365;DHT22;9309;52.126;11.616;2023-03-14T15:14:04;4.50;88.60
18365;DHT22;9309;52.126;11.616;2023-03-14T15:16:32;4.40;88.30
18365;DHT22;9309;52.126;11.616;2023-03-14T15:19:02;4.50;90.60
18365;DHT22;9309;52.126;11.616;2023-03-14T15:21:32;4.50;89.20
18365;DHT22;9309;52.126;11.616;2023-03-14T15:23:59;4.40;88.10
18365;DHT22;9309;52.126;11.616;2023-03-14T15:26:27;4.40;88.40
18365;DHT22;9309;52.126;11.616;2023-03-14T15:28:54;4.30;87.90
18365;DHT22;9309;52.126;11.616;2023-03-14T15:31:21;4.30;88.70
18365;DHT22;9309;52.126;11.616;2023-03-14T15:33:51;4.30;88.60
18365;DHT22;9309;52.126;11.616;2023-03-14T15:36:23;4.20;88.10
18365;DHT22;9309;52.126;11.616;2023-03-14T15:38:52;4.20;85.50
18365;DHT22;9309;52.126;11.616;2023-03-14T15:41:19;4.20;86.70
18365;DHT22;9309;52.126;11.616;2023-03-14T15:43:46;4.30;87.20
18365;DHT22;9309;52.126;11.616;2023-03-14T15:46:14;4.30;86.10
18365;DHT22;9309;52.126;11.616;2023-03-14T15:48:43;4.20;87.10
18365;DHT22;9309;52.126;11.616;2023-03-14T15:51:09;4.20;86.70
18365;DHT22;9309;52.126;11.616;2023-03-14T15:53:37;4.20;88.10
18365;DHT22;9309;52.126;11.616;2023-03-14T15:56:06;4.20;86.00
18365;DHT22;9309;52.126;11.616;2023-03-14T15:58:33;4.10;85.40
18365;DHT22;9309;52.126;11.616;2023-03-14T16:01:00;4.10;86.40